sensor_id;sensor_type;location;lat;lon;timestamp;pressure;altitude;pressure_sealevel;temperature;humidity
16451;BME280;12243;42.708;23.310;2022-07-29T00:01:48;95187.56;;;20.73;90.56
16451;BME280;12243;42.708;23.310;2022-07-29T00:04:15;95190.94;;;20.67;91.13
16451;BME280;12243;42.708;23.310;2022-07-29T00:06:42;95203.06;;;20.76;91.04
16451;BME280;12243;42.708;23.310;2022-07-29T00:09:09;95201.44;;;20.75;90.26
16451;BME280;12243;42.708;23.310;2022-07-29T00:11:36;95193.50;;;20.75;89.87
16451;BME280;12243;42.708;23.310;2022-07-29T00:14:03;95197.66;;;20.84;89.60
16451;BME280;12243;42.708;23.310;2022-07-29T00:16:30;95198.31;;;20.86;89.46
16451;BME280;12243;42.708;23.310;2022-07-29T00:18:58;95200.94;;;20.86;89.31
16451;BME280;12243;42.708;23.310;2022-07-29T00:21:25;95200.81;;;20.94;88.70
16451;BME280;12243;42.708;23.310;2022-07-29T00:23:51;95204.34;;;21.02;88.34
16451;BME280;12243;42.708;23.310;2022-07-29T00:26:18;95197.22;;;21.02;89.26
16451;BME280;12243;42.708;23.310;2022-07-29T00:28:45;95197.94;;;20.89;90.15
16451;BME280;12243;42.708;23.310;2022-07-29T00:31:12;95204.63;;;20.85;91.05
16451;BME280;12243;42.708;23.310;2022-07-29T00:33:39;95196.75;;;20.77;91.54
16451;BME280;12243;42.708;23.310;2022-07-29T00:36:07;95199.97;;;20.73;92.46
16451;BME280;12243;42.708;23.310;2022-07-29T00:38:33;95201.59;;;20.74;92.90
16451;BME280;12243;42.708;23.310;2022-07-29T00:41:00;95206.47;;;20.70;92.96
16451;BME280;12243;42.708;23.310;2022-07-29T00:43:27;95210.25;;;20.61;93.85
16451;BME280;12243;42.708;23.310;2022-07-29T00:45:54;95211.97;;;20.24;95.15
16451;BME280;12243;42.708;23.310;2022-07-29T00:48:21;95204.50;;;19.98;96.57
16451;BME280;12243;42.708;23.310;2022-07-29T00:50:49;95203.88;;;19.73;97.88
16451;BME280;12243;42.708;23.310;2022-07-29T00:53:17;95209.59;;;19.62;99.30
16451;BME280;12243;42.708;23.310;2022-07-29T00:55:45;95211.97;;;19.57;99.91
16451;BME280;12243;42.708;23.310;2022-07-29T00:58:12;95211.19;;;19.48;100.00
16451;BME280;12243;42.708;23.310;2022-07-29T01:00:40;95200.72;;;19.55;100.00
16451;BME280;12243;42.708;23.310;2022-07-29T01:03:07;95193.81;;;19.54;100.00
16451;BME280;12243;42.708;23.310;2022-07-29T01:05:35;95205.47;;;19.59;100.00
16451;BME280;12243;42.708;23.310;2022-07-29T01:08:02;95200.97;;;19.68;99.89
16451;BME280;12243;42.708;23.310;2022-07-29T01:10:31;95201.19;;;19.58;100.00
16451;BME280;12243;42.708;23.310;2022-07-29T01:12:59;95192.41;;;19.66;99.74
16451;BME280;12243;42.708;23.310;2022-07-29T01:15:27;95185.00;;;19.61;99.73
16451;BME280;12243;42.708;23.310;2022-07-29T01:18:01;95186.00;;;19.60;99.67
16451;BME280;12243;42.708;23.310;2022-07-29T01:20:40;95188.13;;;19.65;99.54
16451;BME280;12243;42.708;23.310;2022-07-29T01:23:31;95182.25;;;19.55;99.68
16451;BME280;12243;42.708;23.310;2022-07-29T01:26:15;95180.25;;;19.57;100.00
16451;BME280;12243;42.708;23.310;2022-07-29T01:28:58;95178.88;;;19.61;99.82
16451;BME280;12243;42.708;23.310;2022-07-29T01:31:33;95177.25;;;19.60;100.00
16451;BME280;12243;42.708;23.310;2022-07-29T01:34:03;95170.31;;;19.59;100.00
16451;BME280;12243;42.708;23.310;2022-07-29T01:36:35;95169.94;;;19.62;99.99
16451;BME280;12243;42.708;23.310;2022-07-29T01:39:06;95163.41;;;19.58;100.00
16451;BME280;12243;42.708;23.310;2022-07-29T01:41:38;95171.97;;;19.60;100.00
16451;BME280;12243;42.708;23.310;2022-07-29T01:44:16;95171.97;;;19.60;100.00
16451;BME280;12243;42.708;23.310;2022-07-29T01:46:49;95177.16;;;19.53;100.00
16451;BME280;12243;42.708;23.310;2022-07-29T01:49:22;95168.69;;;19.58;100.00
16451;BME280;12243;42.708;23.310;2022-07-29T01:51:54;95178.88;;;19.61;100.00
16451;BME280;12243;42.708;23.310;2022-07-29T01:54:28;95170.97;;;19.61;100.00
16451;BME280;12243;42.708;23.310;2022-07-29T01:56:56;95168.63;;;19.66;100.00
16451;BME280;12243;42.708;23.310;2022-07-29T01:59:27;95159.53;;;19.68;100.00
16451;BME280;12243;42.708;23.310;2022-07-29T02:01:57;95162.25;;;19.75;99.90
16451;BME280;12243;42.708;23.310;2022-07-29T02:04:25;95155.59;;;19.79;99.42
16451;BME280;12243;42.708;23.310;2022-07-29T02:06:58;95158.91;;;19.81;99.30
16451;BME280;12243;42.708;23.310;2022-07-29T02:09:26;95159.81;;;19.73;99.75
16451;BME280;12243;42.708;23.310;2022-07-29T02:11:55;95158.50;;;19.69;99.83
16451;BME280;12243;42.708;23.310;2022-07-29T02:14:23;95158.34;;;19.71;100.00
16451;BME280;12243;42.708;23.310;2022-07-29T02:16:54;95149.13;;;19.67;100.00
16451;BME280;12243;42.708;23.310;2022-07-29T02:19:26;95155.97;;;19.76;100.00
16451;BME280;12243;42.708;23.310;2022-07-29T02:21:54;95155.97;;;19.76;100.00
16451;BME280;12243;42.708;23.310;2022-07-29T02:24:24;95150.69;;;19.76;100.00
16451;BME280;12243;42.708;23.310;2022-07-29T02:26:53;95142.22;;;19.81;100.00
16451;BME280;12243;42.708;23.310;2022-07-29T02:29:23;95150.22;;;19.87;99.69
16451;BME280;12243;42.708;23.310;2022-07-29T02:31:53;95150.06;;;19.89;99.34
16451;BME280;12243;42.708;23.310;2022-07-29T02:34:21;95141.47;;;19.87;99.49
16451;BME280;12243;42.708;23.310;2022-07-29T02:36:50;95133.84;;;19.92;99.11
16451;BME280;12243;42.708;23.310;2022-07-29T02:39:18;95127.38;;;19.94;99.04
16451;BME280;12243;42.708;23.310;2022-07-29T02:41:49;95134.66;;;19.92;99.68
16451;BME280;12243;42.708;23.310;2022-07-29T02:44:18;95134.53;;;20.01;99.71
16451;BME280;12243;42.708;23.310;2022-07-29T02:46:51;95135.75;;;19.98;99.84
16451;BME280;12243;42.708;23.310;2022-07-29T02:49:34;95141.22;;;19.96;99.91
16451;BME280;12243;42.708;23.310;2022-07-29T02:52:03;95142.22;;;19.95;100.00
16451;BME280;12243;42.708;23.310;2022-07-29T02:54:37;95145.66;;;20.11;99.52
16451;BME280;12243;42.708;23.310;2022-07-29T02:57:10;95134.00;;;20.05;99.41
16451;BME280;12243;42.708;23.310;2022-07-29T02:59:38;95145.22;;;19.92;100.00
16451;BME280;12243;42.708;23.310;2022-07-29T03:02:09;95134.81;;;19.76;100.00
16451;BME280;12243;42.708;23.310;2022-07-29T03:04:40;95141.38;;;19.80;100.00
16451;BME280;12243;42.708;23.310;2022-07-29T03:07:09;95140.47;;;19.73;100.00
16451;BME280;12243;42.708;23.310;2022-07-29T03:09:38;95141.09;;;19.60;100.00
16451;BME280;12243;42.708;23.310;2022-07-29T03:12:06;95132.59;;;19.50;100.00
16451;BME280;12243;42.708;23.310;2022-07-29T03:14:33;95139.59;;;19.43;100.00
16451;BME280;12243;42.708;23.310;2022-07-29T03:17:02;95136.19;;;19.34;100.00
16451;BME280;12243;42.708;23.310;2022-07-29T03:19:32;95138.47;;;19.22;100.00
16451;BME280;12243;42.708;23.310;2022-07-29T03:22:01;95138.28;;;19.24;100.00
16451;BME280;12243;42.708;23.310;2022-07-29T03:24:30;95137.34;;;19.17;100.00
16451;BME280;12243;42.708;23.310;2022-07-29T03:26:57;95137.66;;;19.22;100.00
16451;BME280;12243;42.708;23.310;2022-07-29T03:29:25;95139.28;;;19.23;100.00
16451;BME280;12243;42.708;23.310;2022-07-29T03:31:52;95142.94;;;19.22;100.00
16451;BME280;12243;42.708;23.310;2022-07-29T03:34:19;95135.97;;;19.21;100.00
16451;BME280;12243;42.708;23.310;2022-07-29T03:36:46;95142.19;;;19.28;100.00
16451;BME280;12243;42.708;23.310;2022-07-29T03:39:17;95142.19;;;19.28;100.00
16451;BME280;12243;42.708;23.310;2022-07-29T03:41:46;95142.75;;;19.38;100.00
16451;BME280;12243;42.708;23.310;2022-07-29T03:44:15;95143.97;;;19.50;100.00
16451;BME280;12243;42.708;23.310;2022-07-29T03:46:44;95157.75;;;19.61;100.00
16451;BME280;12243;42.708;23.310;2022-07-29T03:49:14;95152.81;;;19.58;100.00
16451;BME280;12243;42.708;23.310;2022-07-29T03:51:42;95148.13;;;19.68;100.00
16451;BME280;12243;42.708;23.310;2022-07-29T03:54:09;95155.03;;;19.69;100.00
16451;BME280;12243;42.708;23.310;2022-07-29T03:56:39;95159.97;;;19.87;100.00
16451;BME280;12243;42.708;23.310;2022-07-29T03:59:07;95159.44;;;20.21;100.00
16451;BME280;12243;42.708;23.310;2022-07-29T04:01:35;95162.88;;;20.87;100.00
16451;BME280;12243;42.708;23.310;2022-07-29T04:04:02;95169.06;;;21.59;96.19
16451;BME280;12243;42.708;23.310;2022-07-29T04:06:38;95166.84;;;22.25;91.66
16451;BME280;12243;42.708;23.310;2022-07-29T04:09:05;95164.59;;;22.83;87.82
16451;BME280;12243;42.708;23.310;2022-07-29T04:11:32;95157.16;;;23.34;83.19
16451;BME280;12243;42.708;23.310;2022-07-29T04:14:00;95157.38;;;23.85;80.60
16451;BME280;12243;42.708;23.310;2022-07-29T04:16:27;95160.34;;;24.22;77.62
16451;BME280;12243;42.708;23.310;2022-07-29T04:18:54;95162.72;;;24.57;75.60
16451;BME280;12243;42.708;23.310;2022-07-29T04:21:21;95154.66;;;24.77;73.30
16451;BME280;12243;42.708;23.310;2022-07-29T04:23:48;95151.13;;;24.83;72.23
16451;BME280;12243;42.708;23.310;2022-07-29T04:26:16;95150.75;;;24.79;72.14
16451;BME280;12243;42.708;23.310;2022-07-29T04:28:43;95156.28;;;25.09;70.85
16451;BME280;12243;42.708;23.310;2022-07-29T04:31:12;95161.44;;;25.42;69.96
16451;BME280;12243;42.708;23.310;2022-07-29T04:33:40;95166.06;;;25.79;67.91
16451;BME280;12243;42.708;23.310;2022-07-29T04:36:06;95170.50;;;25.92;66.96
16451;BME280;12243;42.708;23.310;2022-07-29T04:38:33;95171.63;;;26.02;66.50
16451;BME280;12243;42.708;23.310;2022-07-29T04:41:00;95175.41;;;26.31;65.74
16451;BME280;12243;42.708;23.310;2022-07-29T04:43:27;95172.75;;;26.50;64.31
16451;BME280;12243;42.708;23.310;2022-07-29T04:45:54;95175.88;;;26.65;63.80
16451;BME280;12243;42.708;23.310;2022-07-29T04:48:22;95172.19;;;26.96;63.91
16451;BME280;12243;42.708;23.310;2022-07-29T04:50:49;95177.56;;;27.26;61.18
16451;BME280;12243;42.708;23.310;2022-07-29T04:53:16;95178.50;;;27.20;61.29
16451;BME280;12243;42.708;23.310;2022-07-29T04:55:43;95181.53;;;27.24;60.70
16451;BME280;12243;42.708;23.310;2022-07-29T04:58:10;95187.69;;;27.36;60.60
16451;BME280;12243;42.708;23.310;2022-07-29T05:00:37;95187.94;;;27.76;58.68
16451;BME280;12243;42.708;23.310;2022-07-29T05:03:04;95185.72;;;27.85;58.32
16451;BME280;12243;42.708;23.310;2022-07-29T05:05:32;95178.75;;;28.08;57.83
16451;BME280;12243;42.708;23.310;2022-07-29T05:07:59;95179.19;;;27.93;57.19
16451;BME280;12243;42.708;23.310;2022-07-29T05:10:26;95183.28;;;27.95;58.00
16451;BME280;12243;42.708;23.310;2022-07-29T05:12:54;95181.31;;;27.79;57.36
16451;BME280;12243;42.708;23.310;2022-07-29T05:15:21;95176.59;;;27.74;57.64
16451;BME280;12243;42.708;23.310;2022-07-29T05:17:47;95184.34;;;28.18;57.20
16451;BME280;12243;42.708;23.310;2022-07-29T05:20:14;95191.09;;;28.44;55.76
16451;BME280;12243;42.708;23.310;2022-07-29T05:22:42;95193.69;;;28.39;55.27
16451;BME280;12243;42.708;23.310;2022-07-29T05:25:09;95191.06;;;27.85;56.75
16451;BME280;12243;42.708;23.310;2022-07-29T05:27:36;95181.75;;;27.04;58.76
16451;BME280;12243;42.708;23.310;2022-07-29T05:30:04;95182.53;;;26.19;61.30
16451;BME280;12243;42.708;23.310;2022-07-29T05:32:30;95182.72;;;25.81;63.50
16451;BME280;12243;42.708;23.310;2022-07-29T05:34:57;95191.91;;;25.85;63.76
16451;BME280;12243;42.708;23.310;2022-07-29T05:37:24;95191.38;;;25.70;64.23
16451;BME280;12243;42.708;23.310;2022-07-29T05:39:52;95191.06;;;25.28;65.57
16451;BME280;12243;42.708;23.310;2022-07-29T05:42:19;95188.22;;;24.84;66.96
16451;BME280;12243;42.708;23.310;2022-07-29T05:44:46;95188.75;;;24.55;68.27
16451;BME280;12243;42.708;23.310;2022-07-29T05:47:13;95195.75;;;24.36;69.34
16451;BME280;12243;42.708;23.310;2022-07-29T05:49:41;95187.66;;;24.76;68.65
16451;BME280;12243;42.708;23.310;2022-07-29T05:52:08;95197.63;;;25.32;67.14
16451;BME280;12243;42.708;23.310;2022-07-29T05:54:35;95200.59;;;25.99;65.00
16451;BME280;12243;42.708;23.310;2022-07-29T05:57:03;95194.34;;;26.67;61.86
16451;BME280;12243;42.708;23.310;2022-07-29T05:59:31;95196.31;;;26.78;60.43
16451;BME280;12243;42.708;23.310;2022-07-29T06:01:58;95195.50;;;27.07;59.75
16451;BME280;12243;42.708;23.310;2022-07-29T06:04:24;95192.38;;;27.11;58.57
16451;BME280;12243;42.708;23.310;2022-07-29T06:06:51;95195.28;;;27.39;58.98
16451;BME280;12243;42.708;23.310;2022-07-29T06:09:18;95194.53;;;27.62;57.28
16451;BME280;12243;42.708;23.310;2022-07-29T06:11:45;95197.09;;;27.69;57.01
16451;BME280;12243;42.708;23.310;2022-07-29T06:14:13;95200.16;;;27.84;57.38
16451;BME280;12243;42.708;23.310;2022-07-29T06:16:41;95205.06;;;28.11;56.28
16451;BME280;12243;42.708;23.310;2022-07-29T06:19:08;95201.81;;;28.32;56.50
16451;BME280;12243;42.708;23.310;2022-07-29T06:21:34;95197.84;;;28.23;55.41
16451;BME280;12243;42.708;23.310;2022-07-29T06:24:02;95200.06;;;28.14;55.28
16451;BME280;12243;42.708;23.310;2022-07-29T06:26:29;95197.84;;;27.99;55.10
16451;BME280;12243;42.708;23.310;2022-07-29T06:28:55;95197.03;;;28.11;55.02
16451;BME280;12243;42.708;23.310;2022-07-29T06:31:24;95192.97;;;28.08;55.29
16451;BME280;12243;42.708;23.310;2022-07-29T06:33:50;95191.19;;;28.14;55.37
16451;BME280;12243;42.708;23.310;2022-07-29T06:36:18;95195.41;;;28.45;54.16
16451;BME280;12243;42.708;23.310;2022-07-29T06:38:45;95190.75;;;28.40;54.83
16451;BME280;12243;42.708;23.310;2022-07-29T06:41:11;95188.50;;;28.14;55.20
16451;BME280;12243;42.708;23.310;2022-07-29T06:43:42;95189.69;;;28.18;55.41
16451;BME280;12243;42.708;23.310;2022-07-29T06:46:11;95190.59;;;28.59;54.74
16451;BME280;12243;42.708;23.310;2022-07-29T06:48:40;95193.13;;;28.77;53.40
16451;BME280;12243;42.708;23.310;2022-07-29T06:51:08;95184.03;;;28.78;53.37
16451;BME280;12243;42.708;23.310;2022-07-29T06:53:36;95194.00;;;28.94;53.49
16451;BME280;12243;42.708;23.310;2022-07-29T06:56:04;95183.09;;;28.84;53.05
16451;BME280;12243;42.708;23.310;2022-07-29T06:58:31;95194.41;;;29.15;52.19
16451;BME280;12243;42.708;23.310;2022-07-29T07:01:01;95185.94;;;29.06;52.84
16451;BME280;12243;42.708;23.310;2022-07-29T07:03:28;95186.34;;;29.15;52.33
16451;BME280;12243;42.708;23.310;2022-07-29T07:05:57;95185.41;;;29.21;51.10
16451;BME280;12243;42.708;23.310;2022-07-29T07:08:24;95181.97;;;29.09;52.08
16451;BME280;12243;42.708;23.310;2022-07-29T07:10:51;95176.50;;;29.04;51.67
16451;BME280;12243;42.708;23.310;2022-07-29T07:13:18;95183.88;;;29.25;51.18
16451;BME280;12243;42.708;23.310;2022-07-29T07:15:45;95179.13;;;28.75;51.86
16451;BME280;12243;42.708;23.310;2022-07-29T07:18:14;95179.13;;;28.75;51.82
16451;BME280;12243;42.708;23.310;2022-07-29T07:20:41;95187.34;;;28.57;51.88
16451;BME280;12243;42.708;23.310;2022-07-29T07:23:09;95174.63;;;28.52;52.20
16451;BME280;12243;42.708;23.310;2022-07-29T07:25:36;95173.91;;;28.80;52.03
16451;BME280;12243;42.708;23.310;2022-07-29T07:28:03;95170.56;;;29.02;51.03
16451;BME280;12243;42.708;23.310;2022-07-29T07:30:30;95170.44;;;29.08;50.62
16451;BME280;12243;42.708;23.310;2022-07-29T07:33:00;95169.41;;;28.98;50.33
16451;BME280;12243;42.708;23.310;2022-07-29T07:35:27;95171.56;;;28.72;51.49
16451;BME280;12243;42.708;23.310;2022-07-29T07:37:54;95173.84;;;28.92;51.34
16451;BME280;12243;42.708;23.310;2022-07-29T07:40:23;95165.47;;;28.88;50.88
16451;BME280;12243;42.708;23.310;2022-07-29T07:42:50;95166.31;;;28.77;50.63
16451;BME280;12243;42.708;23.310;2022-07-29T07:45:16;95173.59;;;28.93;50.43
16451;BME280;12243;42.708;23.310;2022-07-29T07:47:43;95175.41;;;29.16;49.83
16451;BME280;12243;42.708;23.310;2022-07-29T07:50:11;95169.13;;;29.11;49.73
16451;BME280;12243;42.708;23.310;2022-07-29T07:52:46;95169.91;;;29.23;49.59
16451;BME280;12243;42.708;23.310;2022-07-29T07:55:13;95170.00;;;29.45;49.21
16451;BME280;12243;42.708;23.310;2022-07-29T07:57:41;95169.78;;;29.80;49.44
16451;BME280;12243;42.708;23.310;2022-07-29T08:00:09;95173.06;;;29.99;48.16
16451;BME280;12243;42.708;23.310;2022-07-29T08:02:40;95167.28;;;29.90;48.70
16451;BME280;12243;42.708;23.310;2022-07-29T08:05:08;95160.97;;;30.35;47.75
16451;BME280;12243;42.708;23.310;2022-07-29T08:07:36;95162.66;;;30.42;47.26
16451;BME280;12243;42.708;23.310;2022-07-29T08:10:03;95165.84;;;30.38;47.03
16451;BME280;12243;42.708;23.310;2022-07-29T08:12:30;95165.84;;;30.38;47.04
16451;BME280;12243;42.708;23.310;2022-07-29T08:14:58;95165.97;;;30.49;46.49
16451;BME280;12243;42.708;23.310;2022-07-29T08:17:25;95163.84;;;30.51;46.42
16451;BME280;12243;42.708;23.310;2022-07-29T08:19:53;95161.59;;;30.43;46.51
16451;BME280;12243;42.708;23.310;2022-07-29T08:22:20;95166.69;;;30.22;46.44
16451;BME280;12243;42.708;23.310;2022-07-29T08:24:47;95164.13;;;30.32;46.03
16451;BME280;12243;42.708;23.310;2022-07-29T08:27:19;95159.78;;;30.70;44.56
16451;BME280;12243;42.708;23.310;2022-07-29T08:29:47;95153.25;;;30.83;44.72
16451;BME280;12243;42.708;23.310;2022-07-29T08:32:15;95161.94;;;30.90;44.61
16451;BME280;12243;42.708;23.310;2022-07-29T08:34:42;95163.59;;;30.74;44.93
16451;BME280;12243;42.708;23.310;2022-07-29T08:37:12;95156.84;;;30.50;44.75
16451;BME280;12243;42.708;23.310;2022-07-29T08:39:38;95160.59;;;30.49;45.38
16451;BME280;12243;42.708;23.310;2022-07-29T08:42:06;95156.53;;;30.68;44.04
16451;BME280;12243;42.708;23.310;2022-07-29T08:44:33;95161.34;;;30.66;44.29
16451;BME280;12243;42.708;23.310;2022-07-29T08:47:01;95154.50;;;30.75;44.00
16451;BME280;12243;42.708;23.310;2022-07-29T08:49:29;95155.19;;;30.88;43.21
16451;BME280;12243;42.708;23.310;2022-07-29T08:51:57;95157.09;;;31.14;43.03
16451;BME280;12243;42.708;23.310;2022-07-29T08:54:24;95151.00;;;31.51;42.30
16451;BME280;12243;42.708;23.310;2022-07-29T08:56:51;95144.25;;;31.86;42.10
16451;BME280;12243;42.708;23.310;2022-07-29T08:59:19;95155.28;;;32.16;40.58
16451;BME280;12243;42.708;23.310;2022-07-29T09:01:48;95143.09;;;31.76;41.45
16451;BME280;12243;42.708;23.310;2022-07-29T09:04:15;95143.47;;;31.53;41.32
16451;BME280;12243;42.708;23.310;2022-07-29T09:06:47;95136.19;;;31.26;42.32
16451;BME280;12243;42.708;23.310;2022-07-29T09:09:14;95140.94;;;31.41;42.01
16451;BME280;12243;42.708;23.310;2022-07-29T09:11:42;95130.63;;;31.65;40.99
16451;BME280;12243;42.708;23.310;2022-07-29T09:14:11;95141.13;;;31.35;41.07
16451;BME280;12243;42.708;23.310;2022-07-29T09:16:49;95129.16;;;31.47;41.91
16451;BME280;12243;42.708;23.310;2022-07-29T09:19:21;95135.66;;;31.84;40.28
16451;BME280;12243;42.708;23.310;2022-07-29T09:21:50;95128.25;;;32.01;40.26
16451;BME280;12243;42.708;23.310;2022-07-29T09:24:37;95130.84;;;32.33;39.55
16451;BME280;12243;42.708;23.310;2022-07-29T09:27:18;95138.06;;;32.75;38.01
16451;BME280;12243;42.708;23.310;2022-07-29T09:29:45;95138.97;;;32.96;37.62
16451;BME280;12243;42.708;23.310;2022-07-29T09:32:12;95136.84;;;33.13;36.60
16451;BME280;12243;42.708;23.310;2022-07-29T09:34:39;95136.63;;;33.30;35.84
16451;BME280;12243;42.708;23.310;2022-07-29T09:37:08;95132.81;;;33.36;35.36
16451;BME280;12243;42.708;23.310;2022-07-29T09:39:37;95130.19;;;33.52;35.76
16451;BME280;12243;42.708;23.310;2022-07-29T09:42:10;95135.31;;;33.69;34.46
16451;BME280;12243;42.708;23.310;2022-07-29T09:44:44;95126.66;;;33.56;34.64
16451;BME280;12243;42.708;23.310;2022-07-29T09:47:12;95122.84;;;33.47;35.64
16451;BME280;12243;42.708;23.310;2022-07-29T09:49:53;95115.28;;;33.39;35.12
16451;BME280;12243;42.708;23.310;2022-07-29T09:52:25;95119.06;;;33.28;36.16
16451;BME280;12243;42.708;23.310;2022-07-29T09:54:52;95120.13;;;33.32;36.08
16451;BME280;12243;42.708;23.310;2022-07-29T09:57:25;95117.44;;;33.16;36.17
16451;BME280;12243;42.708;23.310;2022-07-29T09:59:56;95114.44;;;33.13;36.57
16451;BME280;12243;42.708;23.310;2022-07-29T10:02:28;95110.69;;;33.24;36.64
16451;BME280;12243;42.708;23.310;2022-07-29T10:04:55;95108.78;;;33.25;35.65
16451;BME280;12243;42.708;23.310;2022-07-29T10:07:23;95102.81;;;33.07;35.38
16451;BME280;12243;42.708;23.310;2022-07-29T10:09:53;95104.31;;;32.72;36.27
16451;BME280;12243;42.708;23.310;2022-07-29T10:12:21;95092.94;;;32.50;36.47
16451;BME280;12243;42.708;23.310;2022-07-29T10:14:48;95084.28;;;32.48;37.22
16451;BME280;12243;42.708;23.310;2022-07-29T10:17:16;95081.69;;;32.79;36.14
16451;BME280;12243;42.708;23.310;2022-07-29T10:19:44;95080.69;;;33.10;35.80
16451;BME280;12243;42.708;23.310;2022-07-29T10:22:11;95083.94;;;33.43;35.16
16451;BME280;12243;42.708;23.310;2022-07-29T10:24:39;95076.91;;;33.88;35.31
16451;BME280;12243;42.708;23.310;2022-07-29T10:27:07;95079.00;;;34.27;34.00
16451;BME280;12243;42.708;23.310;2022-07-29T10:29:35;95074.00;;;34.70;33.95
16451;BME280;12243;42.708;23.310;2022-07-29T10:32:27;95077.44;;;34.80;32.18
16451;BME280;12243;42.708;23.310;2022-07-29T10:35:08;95068.72;;;34.89;31.78
16451;BME280;12243;42.708;23.310;2022-07-29T10:37:51;95067.31;;;34.96;31.84
16451;BME280;12243;42.708;23.310;2022-07-29T10:40:28;95058.56;;;34.70;32.92
16451;BME280;12243;42.708;23.310;2022-07-29T10:43:21;95064.31;;;34.53;32.75
16451;BME280;12243;42.708;23.310;2022-07-29T10:45:55;95059.31;;;34.81;31.94
16451;BME280;12243;42.708;23.310;2022-07-29T10:48:23;95063.72;;;34.67;31.58
16451;BME280;12243;42.708;23.310;2022-07-29T10:50:57;95046.44;;;34.57;31.83
16451;BME280;12243;42.708;23.310;2022-07-29T10:53:46;95044.38;;;34.89;31.43
16451;BME280;12243;42.708;23.310;2022-07-29T10:56:24;95040.47;;;34.60;31.88
16451;BME280;12243;42.708;23.310;2022-07-29T10:59:23;95038.69;;;34.35;33.03
16451;BME280;12243;42.708;23.310;2022-07-29T11:01:52;95031.38;;;34.36;32.66
16451;BME280;12243;42.708;23.310;2022-07-29T11:07:20;95030.50;;;34.51;32.12
16451;BME280;12243;42.708;23.310;2022-07-29T11:12:51;95026.97;;;34.50;32.37
16451;BME280;12243;42.708;23.310;2022-07-29T11:15:20;95027.94;;;34.75;32.52
16451;BME280;12243;42.708;23.310;2022-07-29T11:18:06;95028.25;;;35.13;32.16
16451;BME280;12243;42.708;23.310;2022-07-29T11:20:35;95023.06;;;35.50;31.21
16451;BME280;12243;42.708;23.310;2022-07-29T11:23:18;95023.84;;;35.85;30.36
16451;BME280;12243;42.708;23.310;2022-07-29T11:25:46;95014.94;;;35.50;31.29
16451;BME280;12243;42.708;23.310;2022-07-29T11:28:36;95016.09;;;35.39;31.59
16451;BME280;12243;42.708;23.310;2022-07-29T11:31:05;95014.72;;;35.76;31.00
16451;BME280;12243;42.708;23.310;2022-07-29T11:33:34;95013.50;;;35.87;30.34
16451;BME280;12243;42.708;23.310;2022-07-29T11:36:09;95015.06;;;35.93;29.82
16451;BME280;12243;42.708;23.310;2022-07-29T11:38:37;95020.22;;;35.66;30.74
16451;BME280;12243;42.708;23.310;2022-07-29T11:41:24;95016.41;;;35.67;30.70
16451;BME280;12243;42.708;23.310;2022-07-29T11:43:53;95019.22;;;35.86;30.55
16451;BME280;12243;42.708;23.310;2022-07-29T11:46:46;95013.78;;;35.62;30.69
16451;BME280;12243;42.708;23.310;2022-07-29T11:49:19;95006.97;;;35.64;30.81
16451;BME280;12243;42.708;23.310;2022-07-29T11:51:50;95008.81;;;35.69;30.85
16451;BME280;12243;42.708;23.310;2022-07-29T11:54:23;95012.06;;;35.71;30.62
16451;BME280;12243;42.708;23.310;2022-07-29T11:56:51;94998.44;;;35.76;30.84
16451;BME280;12243;42.708;23.310;2022-07-29T11:59:20;94994.84;;;35.81;30.64
16451;BME280;12243;42.708;23.310;2022-07-29T12:01:55;94996.47;;;35.58;31.33
16451;BME280;12243;42.708;23.310;2022-07-29T12:04:22;95000.16;;;35.67;31.08
16451;BME280;12243;42.708;23.310;2022-07-29T12:06:50;94999.38;;;35.90;30.62
16451;BME280;12243;42.708;23.310;2022-07-29T12:09:18;94987.97;;;36.17;30.22
16451;BME280;12243;42.708;23.310;2022-07-29T12:11:45;94992.28;;;36.18;29.75
16451;BME280;12243;42.708;23.310;2022-07-29T12:14:26;94990.81;;;36.26;29.50
16451;BME280;12243;42.708;23.310;2022-07-29T12:16:53;94991.19;;;36.19;29.84
16451;BME280;12243;42.708;23.310;2022-07-29T12:19:20;94990.25;;;36.29;29.25
16451;BME280;12243;42.708;23.310;2022-07-29T12:21:50;94991.91;;;36.49;28.87
16451;BME280;12243;42.708;23.310;2022-07-29T12:24:18;94994.28;;;36.56;29.13
16451;BME280;12243;42.708;23.310;2022-07-29T12:26:52;94991.06;;;36.30;29.14
16451;BME280;12243;42.708;23.310;2022-07-29T12:29:19;94983.78;;;36.25;29.09
16451;BME280;12243;42.708;23.310;2022-07-29T12:31:52;94988.03;;;36.55;28.62
16451;BME280;12243;42.708;23.310;2022-07-29T12:34:20;94982.69;;;37.07;28.46
16451;BME280;12243;42.708;23.310;2022-07-29T12:36:49;94973.88;;;37.29;27.62
16451;BME280;12243;42.708;23.310;2022-07-29T12:39:16;94973.50;;;37.35;27.27
16451;BME280;12243;42.708;23.310;2022-07-29T12:41:44;94979.06;;;36.92;28.27
16451;BME280;12243;42.708;23.310;2022-07-29T12:44:11;94972.41;;;37.04;28.00
16451;BME280;12243;42.708;23.310;2022-07-29T12:46:38;94977.16;;;37.12;27.57
16451;BME280;12243;42.708;23.310;2022-07-29T12:49:06;94968.22;;;37.11;27.44
16451;BME280;12243;42.708;23.310;2022-07-29T12:51:37;94965.53;;;37.25;28.03
16451;BME280;12243;42.708;23.310;2022-07-29T12:54:06;94968.28;;;36.87;28.20
16451;BME280;12243;42.708;23.310;2022-07-29T12:56:33;94959.31;;;37.06;27.21
16451;BME280;12243;42.708;23.310;2022-07-29T12:59:11;94957.34;;;37.11;27.44
16451;BME280;12243;42.708;23.310;2022-07-29T13:01:38;94953.97;;;35.77;29.44
16451;BME280;12243;42.708;23.310;2022-07-29T13:04:06;94953.47;;;35.46;29.84
16451;BME280;12243;42.708;23.310;2022-07-29T13:06:36;94944.69;;;35.30;30.08